createdAt,value
2023-01-06T00:03:40.030Z,5.00
2023-01-06T00:08:42.677Z,2.77
2023-01-06T00:13:46.706Z,4.70
2023-01-06T00:18:49.387Z,3.77
2023-01-06T00:23:52.136Z,2.50
2023-01-06T00:28:57.424Z,4.93
2023-01-06T00:34:00.053Z,5.00
2023-01-06T00:39:02.758Z,4.37
2023-01-06T00:44:07.546Z,4.80
2023-01-06T00:49:10.195Z,6.90
2023-01-06T00:54:14.812Z,4.53
2023-01-06T00:59:20.152Z,5.83
2023-01-06T01:04:23.491Z,6.50
2023-01-06T01:09:28.971Z,4.20
2023-01-06T01:14:33.081Z,7.70
2023-01-06T01:19:36.722Z,6.00
2023-01-06T01:24:39.713Z,2.83
2023-01-06T01:29:43.705Z,6.77
2023-01-06T01:34:46.402Z,9.00
2023-01-06T01:39:49.209Z,3.17
2023-01-06T01:44:59.760Z,7.50
2023-01-06T01:50:06.586Z,5.87
2023-01-06T01:55:10.959Z,5.47
2023-01-06T02:00:15.730Z,7.40
2023-01-06T02:05:23.267Z,6.70
2023-01-06T02:10:26.324Z,7.90
2023-01-06T02:15:31.770Z,8.60
2023-01-06T02:20:52.997Z,8.20
2023-01-06T02:26:37.707Z,7.80
2023-01-06T02:31:59.635Z,10.10
2023-01-06T02:37:09.641Z,11.43
2023-01-06T02:42:20.994Z,10.37
2023-01-06T02:47:34.620Z,7.90
2023-01-06T02:52:45.621Z,8.57
2023-01-06T02:57:53.587Z,8.60
2023-01-06T03:03:00.396Z,8.33
2023-01-06T03:08:07.613Z,5.47
2023-01-06T03:13:15.755Z,5.47
2023-01-06T03:18:20.246Z,8.03
2023-01-06T03:23:23.093Z,6.23
2023-01-06T03:28:25.840Z,4.37
2023-01-06T03:33:36.230Z,7.67
2023-01-06T03:38:48.633Z,7.17
2023-01-06T03:44:00.304Z,9.90
2023-01-06T03:49:09.050Z,11.13
2023-01-06T03:54:20.041Z,7.50
2023-01-06T03:59:26.898Z,3.90
2023-01-06T04:04:30.899Z,5.20
2023-01-06T04:09:33.758Z,4.80
2023-01-06T04:14:36.513Z,4.40
2023-01-06T04:19:40.485Z,6.13
2023-01-06T04:24:43.161Z,4.93
2023-01-06T04:29:45.859Z,9.17
2023-01-06T04:34:49.888Z,6.47
2023-01-06T04:39:52.627Z,7.23
2023-01-06T04:44:55.321Z,8.00
2023-01-06T04:49:59.311Z,6.17
2023-01-06T04:55:01.973Z,4.23
2023-01-06T05:00:06.119Z,8.77
2023-01-06T05:05:10.630Z,10.90
2023-01-06T05:10:13.315Z,6.10
2023-01-06T05:15:16.181Z,7.00
2023-01-06T05:20:20.220Z,9.40
2023-01-06T05:25:22.956Z,11.17
2023-01-06T05:30:25.686Z,8.53
2023-01-06T05:35:29.745Z,7.23
2023-01-06T05:40:32.428Z,7.33
2023-01-06T05:45:35.181Z,9.93
2023-01-06T05:50:39.212Z,8.90
2023-01-06T05:55:41.886Z,12.03
2023-01-06T06:00:44.633Z,10.00
2023-01-06T06:05:48.706Z,10.03
2023-01-06T06:10:51.370Z,13.97
2023-01-06T06:16:05.124Z,10.33
2023-01-06T06:21:10.814Z,14.93
2023-01-06T06:26:13.779Z,16.33
2023-01-06T06:31:18.735Z,18.73
2023-01-06T06:36:23.655Z,12.23
2023-01-06T06:41:26.999Z,13.13
2023-01-06T06:46:29.660Z,11.67
2023-01-06T06:51:33.657Z,9.07
2023-01-06T06:56:36.386Z,11.67
2023-01-06T07:01:39.294Z,12.80
2023-01-06T07:06:43.319Z,17.97
2023-01-06T07:11:45.969Z,15.03
2023-01-06T07:16:48.599Z,21.27
2023-01-06T07:21:52.691Z,12.30
2023-01-06T07:26:55.405Z,18.97
2023-01-06T07:31:58.057Z,15.63
2023-01-06T07:37:02.176Z,16.17
2023-01-06T07:42:05.188Z,19.80
2023-01-06T07:47:07.853Z,17.67
2023-01-06T07:52:11.852Z,13.60
2023-01-06T07:57:14.638Z,16.67
2023-01-06T08:02:17.457Z,11.80
2023-01-06T08:07:21.474Z,12.43
2023-01-06T08:12:24.172Z,13.60
2023-01-06T08:17:26.855Z,11.83
2023-01-06T08:22:30.877Z,15.10
2023-01-06T08:27:33.530Z,12.33
2023-01-06T08:32:36.183Z,14.27
2023-01-06T08:37:40.252Z,12.80
2023-01-06T08:42:42.905Z,14.57
2023-01-06T08:47:45.595Z,10.83
2023-01-06T08:52:49.617Z,6.23
2023-01-06T08:57:54.837Z,6.63
2023-01-06T09:02:57.780Z,5.00
2023-01-06T09:08:01.938Z,4.88
2023-01-06T09:13:04.852Z,5.07
2023-01-06T09:18:08.547Z,5.13
2023-01-06T09:23:12.588Z,7.03
2023-01-06T09:28:15.291Z,5.40
2023-01-06T09:33:18.901Z,6.33
2023-01-06T09:38:22.896Z,7.23
2023-01-06T09:43:35.185Z,6.03
2023-01-06T09:48:46.032Z,6.23
2023-01-06T09:53:54.820Z,7.03
2023-01-06T09:59:07.411Z,4.93
2023-01-06T10:04:15.557Z,7.83
2023-01-06T10:09:29.379Z,6.77
2023-01-06T10:14:39.714Z,8.97
2023-01-06T10:19:56.346Z,4.07
2023-01-06T10:25:07.780Z,5.70
2023-01-06T10:30:20.171Z,6.40
2023-01-06T10:35:25.564Z,4.80
2023-01-06T10:40:30.899Z,6.20
2023-01-06T10:45:37.562Z,5.10
2023-01-06T10:50:40.583Z,6.43
2023-01-06T10:55:48.609Z,4.17
2023-01-06T11:00:57.277Z,4.17
2023-01-06T11:06:02.687Z,5.53
2023-01-06T11:11:27.212Z,4.47
2023-01-06T11:16:34.109Z,4.53
2023-01-06T11:21:40.426Z,5.67
2023-01-06T11:26:51.344Z,4.33
2023-01-06T11:31:54.667Z,2.00
2023-01-06T11:36:59.375Z,1.63
2023-01-06T11:42:13.829Z,0.93
2023-01-06T11:47:19.011Z,2.08
2023-01-06T11:52:24.540Z,0.93
2023-01-06T11:57:36.704Z,0.70
2023-01-06T12:02:49.573Z,1.52
2023-01-06T12:07:55.481Z,1.08
2023-01-06T12:12:59.667Z,0.40
2023-01-06T12:18:07.060Z,2.40
2023-01-06T12:23:16.232Z,1.50
2023-01-06T12:28:28.033Z,0.97
2023-01-06T12:33:36.242Z,3.60
2023-01-06T12:38:47.444Z,1.87
2023-01-06T12:44:01.298Z,0.60
2023-01-06T12:49:09.519Z,1.77
2023-01-06T12:54:18.267Z,0.63
2023-01-06T12:59:32.152Z,0.87
2023-01-06T13:04:49.045Z,1.57
2023-01-06T13:10:02.394Z,1.90
2023-01-06T13:15:15.694Z,1.60
2023-01-06T13:20:24.752Z,1.20
2023-01-06T13:26:02.212Z,0.77
2023-01-06T13:31:23.222Z,1.53
2023-01-06T13:36:52.301Z,1.13
2023-01-06T13:41:58.259Z,2.50
2023-01-06T13:47:08.116Z,1.10
2023-01-06T13:52:19.539Z,0.70
2023-01-06T13:57:34.806Z,0.50
2023-01-06T14:03:25.637Z,1.98
2023-01-06T14:08:33.996Z,1.30
2023-01-06T14:13:41.158Z,1.00
2023-01-06T14:18:46.836Z,1.63
2023-01-06T14:23:57.126Z,1.67
2023-01-06T14:29:29.617Z,3.20
2023-01-06T14:34:33.716Z,0.68
2023-01-06T14:39:41.106Z,2.50
2023-01-06T14:44:47.485Z,1.33
2023-01-06T14:49:56.736Z,2.63
2023-01-06T14:55:02.321Z,0.70
2023-01-06T15:00:13.804Z,1.37
2023-01-06T15:05:21.987Z,1.23
2023-01-06T15:10:27.624Z,2.57
2023-01-06T15:15:32.683Z,2.30
2023-01-06T15:20:42.246Z,1.80
2023-01-06T15:25:49.528Z,1.83
2023-01-06T15:30:52.309Z,0.70
2023-01-06T15:35:55.740Z,1.93
2023-01-06T15:41:00.155Z,3.10
2023-01-06T15:46:05.691Z,1.33
2023-01-06T15:51:12.229Z,0.90
2023-01-06T15:56:21.351Z,0.97
2023-01-06T16:01:25.086Z,3.33
2023-01-06T16:06:29.999Z,0.77
2023-01-06T16:11:51.518Z,1.77
2023-01-06T16:16:55.108Z,1.50
2023-01-06T16:21:58.540Z,0.90
2023-01-06T16:27:05.539Z,0.77
2023-01-06T16:32:28.980Z,2.07
2023-01-06T16:37:33.758Z,4.83
2023-01-06T16:42:42.549Z,1.47
2023-01-06T16:47:46.236Z,1.10
2023-01-06T16:52:55.094Z,1.13
2023-01-06T16:58:01.024Z,1.70
2023-01-06T17:03:13.706Z,1.33
2023-01-06T17:08:18.305Z,3.97
2023-01-06T17:13:36.394Z,1.07
2023-01-06T17:18:49.059Z,1.43
2023-01-06T17:23:54.211Z,1.13
2023-01-06T17:29:00.680Z,1.50
2023-01-06T17:34:11.615Z,0.90
2023-01-06T17:39:19.264Z,2.50
2023-01-06T17:44:32.635Z,2.63
2023-01-06T17:49:36.930Z,2.23
2023-01-06T17:54:57.649Z,1.00
2023-01-06T18:00:03.433Z,1.37
2023-01-06T18:05:50.586Z,2.83
2023-01-06T18:10:57.074Z,0.97
2023-01-06T18:16:02.774Z,1.03
2023-01-06T18:21:24.990Z,2.10
2023-01-06T18:26:36.840Z,1.57
2023-01-06T18:31:41.643Z,2.40
2023-01-06T18:36:45.370Z,1.50
2023-01-06T18:41:48.157Z,1.33
2023-01-06T18:46:52.214Z,1.50
2023-01-06T18:51:55.093Z,1.27
2023-01-06T18:56:57.712Z,1.40
2023-01-06T19:02:02.242Z,0.77
2023-01-06T19:07:13.984Z,1.57
2023-01-06T19:12:20.805Z,1.83
2023-01-06T19:17:28.573Z,1.17
2023-01-06T19:22:34.451Z,2.67
2023-01-06T19:27:48.988Z,1.27
2023-01-06T22:24:22.579Z,5.60
2023-01-06T22:30:25.055Z,6.90
2023-01-06T22:36:07.032Z,5.50
2023-01-06T22:41:58.803Z,7.20
2023-01-06T22:54:00.139Z,3.97
2023-01-06T22:59:34.229Z,3.43
2023-01-06T23:05:11.973Z,4.50
2023-01-06T23:22:29.772Z,4.00
2023-01-06T23:28:09.025Z,4.77
2023-01-06T23:45:51.614Z,3.23
2023-01-06T23:57:46.877Z,2.17
